sensor_id;sensor_type;location;lat;lon;timestamp;temperature;humidity
66962;HTU21D;53897;51.126;5.868;2023-02-28T00:01:29;21.74;37.33
66962;HTU21D;53897;51.126;5.868;2023-02-28T00:03:56;21.73;37.30
66962;HTU21D;53897;51.126;5.868;2023-02-28T00:06:21;21.72;37.24
66962;HTU21D;53897;51.126;5.868;2023-02-28T00:08:47;21.69;37.21
66962;HTU21D;53897;51.126;5.868;2023-02-28T00:11:14;21.67;37.18
66962;HTU21D;53897;51.126;5.868;2023-02-28T00:13:44;21.66;37.16
66962;HTU21D;53897;51.126;5.868;2023-02-28T00:16:15;21.63;37.13
66962;HTU21D;53897;51.126;5.868;2023-02-28T00:18:42;21.62;37.11
66962;HTU21D;53897;51.126;5.868;2023-02-28T00:21:08;21.61;37.09
66962;HTU21D;53897;51.126;5.868;2023-02-28T00:23:34;21.58;37.07
66962;HTU21D;53897;51.126;5.868;2023-02-28T00:26:00;21.58;37.03
66962;HTU21D;53897;51.126;5.868;2023-02-28T00:28:26;21.54;36.98
66962;HTU21D;53897;51.126;5.868;2023-02-28T00:30:52;21.53;36.96
66962;HTU21D;53897;51.126;5.868;2023-02-28T00:33:18;21.51;36.92
66962;HTU21D;53897;51.126;5.868;2023-02-28T00:35:44;21.49;36.92
66962;HTU21D;53897;51.126;5.868;2023-02-28T00:38:13;21.49;36.86
66962;HTU21D;53897;51.126;5.868;2023-02-28T00:40:39;21.46;36.85
66962;HTU21D;53897;51.126;5.868;2023-02-28T00:43:04;21.44;36.84
66962;HTU21D;53897;51.126;5.868;2023-02-28T00:45:30;21.43;36.80
66962;HTU21D;53897;51.126;5.868;2023-02-28T00:47:57;21.40;36.77
66962;HTU21D;53897;51.126;5.868;2023-02-28T00:50:23;21.38;36.75
66962;HTU21D;53897;51.126;5.868;2023-02-28T00:52:49;21.37;36.73
66962;HTU21D;53897;51.126;5.868;2023-02-28T00:55:14;21.35;36.72
66962;HTU21D;53897;51.126;5.868;2023-02-28T00:57:40;21.34;36.69
66962;HTU21D;53897;51.126;5.868;2023-02-28T01:00:08;21.32;36.64
66962;HTU21D;53897;51.126;5.868;2023-02-28T01:02:33;21.32;36.62
66962;HTU21D;53897;51.126;5.868;2023-02-28T01:04:59;21.31;36.59
66962;HTU21D;53897;51.126;5.868;2023-02-28T01:07:28;21.30;36.51
66962;HTU21D;53897;51.126;5.868;2023-02-28T01:09:54;21.27;36.53
66962;HTU21D;53897;51.126;5.868;2023-02-28T01:12:20;21.23;36.50
66962;HTU21D;53897;51.126;5.868;2023-02-28T01:14:46;21.21;36.48
66962;HTU21D;53897;51.126;5.868;2023-02-28T01:17:12;21.21;36.47
66962;HTU21D;53897;51.126;5.868;2023-02-28T01:19:37;21.18;36.47
66962;HTU21D;53897;51.126;5.868;2023-02-28T01:22:04;21.18;36.42
66962;HTU21D;53897;51.126;5.868;2023-02-28T01:24:30;21.15;36.37
66962;HTU21D;53897;51.126;5.868;2023-02-28T01:26:56;21.15;36.36
66962;HTU21D;53897;51.126;5.868;2023-02-28T01:29:21;21.13;36.36
66962;HTU21D;53897;51.126;5.868;2023-02-28T01:31:47;21.11;36.33
66962;HTU21D;53897;51.126;5.868;2023-02-28T01:34:13;21.08;36.34
66962;HTU21D;53897;51.126;5.868;2023-02-28T01:36:38;21.07;36.40
66962;HTU21D;53897;51.126;5.868;2023-02-28T01:39:04;21.04;36.38
66962;HTU21D;53897;51.126;5.868;2023-02-28T01:41:32;21.04;36.30
66962;HTU21D;53897;51.126;5.868;2023-02-28T01:47:04;21.00;36.32
66962;HTU21D;53897;51.126;5.868;2023-02-28T01:49:29;20.96;36.35
66962;HTU21D;53897;51.126;5.868;2023-02-28T01:51:56;20.95;36.34
66962;HTU21D;53897;51.126;5.868;2023-02-28T01:54:31;20.93;36.30
66962;HTU21D;53897;51.126;5.868;2023-02-28T01:57:04;20.93;36.25
66962;HTU21D;53897;51.126;5.868;2023-02-28T01:59:37;20.92;36.21
66962;HTU21D;53897;51.126;5.868;2023-02-28T02:02:06;20.89;36.19
66962;HTU21D;53897;51.126;5.868;2023-02-28T02:04:38;20.89;36.17
66962;HTU21D;53897;51.126;5.868;2023-02-28T02:07:07;20.87;36.14
66962;HTU21D;53897;51.126;5.868;2023-02-28T02:09:34;20.87;36.14
66962;HTU21D;53897;51.126;5.868;2023-02-28T02:12:11;20.85;36.12
66962;HTU21D;53897;51.126;5.868;2023-02-28T02:17:53;20.81;36.07
66962;HTU21D;53897;51.126;5.868;2023-02-28T02:31:48;20.74;35.79
66962;HTU21D;53897;51.126;5.868;2023-02-28T02:34:44;20.72;35.79
66962;HTU21D;53897;51.126;5.868;2023-02-28T02:37:31;20.71;35.88
66962;HTU21D;53897;51.126;5.868;2023-02-28T02:42:41;20.66;35.89
66962;HTU21D;53897;51.126;5.868;2023-02-28T02:45:17;20.65;35.85
66962;HTU21D;53897;51.126;5.868;2023-02-28T02:47:45;20.65;35.76
66962;HTU21D;53897;51.126;5.868;2023-02-28T02:50:22;20.62;35.81
66962;HTU21D;53897;51.126;5.868;2023-02-28T02:52:56;20.61;35.79
66962;HTU21D;53897;51.126;5.868;2023-02-28T02:55:24;20.60;35.76
66962;HTU21D;53897;51.126;5.868;2023-02-28T02:58:13;20.60;35.77
66962;HTU21D;53897;51.126;5.868;2023-02-28T03:00:50;20.58;35.76
66962;HTU21D;53897;51.126;5.868;2023-02-28T03:03:19;20.57;35.77
66962;HTU21D;53897;51.126;5.868;2023-02-28T03:05:59;20.55;35.76
66962;HTU21D;53897;51.126;5.868;2023-02-28T03:08:27;20.54;35.70
66962;HTU21D;53897;51.126;5.868;2023-02-28T03:11:00;20.51;35.76
66962;HTU21D;53897;51.126;5.868;2023-02-28T03:13:50;20.49;35.76
66962;HTU21D;53897;51.126;5.868;2023-02-28T03:25:14;20.43;35.73
66962;HTU21D;53897;51.126;5.868;2023-02-28T03:28:05;20.42;35.73
66962;HTU21D;53897;51.126;5.868;2023-02-28T03:30:45;20.40;35.75
66962;HTU21D;53897;51.126;5.868;2023-02-28T03:33:23;20.37;35.73
66962;HTU21D;53897;51.126;5.868;2023-02-28T03:35:58;20.37;35.73
66962;HTU21D;53897;51.126;5.868;2023-02-28T03:41:22;20.34;35.73
66962;HTU21D;53897;51.126;5.868;2023-02-28T03:44:00;20.33;35.69
66962;HTU21D;53897;51.126;5.868;2023-02-28T03:46:34;20.31;35.72
66962;HTU21D;53897;51.126;5.868;2023-02-28T03:49:25;20.29;35.70
66962;HTU21D;53897;51.126;5.868;2023-02-28T03:51:55;20.28;35.69
66962;HTU21D;53897;51.126;5.868;2023-02-28T03:54:41;20.27;35.67
66962;HTU21D;53897;51.126;5.868;2023-02-28T03:57:26;20.25;35.66
66962;HTU21D;53897;51.126;5.868;2023-02-28T04:00:12;20.24;35.65
66962;HTU21D;53897;51.126;5.868;2023-02-28T04:02:39;20.22;35.62
66962;HTU21D;53897;51.126;5.868;2023-02-28T04:05:06;20.21;35.59
66962;HTU21D;53897;51.126;5.868;2023-02-28T04:07:32;20.22;35.60
66962;HTU21D;53897;51.126;5.868;2023-02-28T04:09:58;20.20;35.60
66962;HTU21D;53897;51.126;5.868;2023-02-28T04:12:24;20.19;35.55
66962;HTU21D;53897;51.126;5.868;2023-02-28T04:14:50;20.18;35.53
66962;HTU21D;53897;51.126;5.868;2023-02-28T04:17:16;20.16;35.53
66962;HTU21D;53897;51.126;5.868;2023-02-28T04:19:42;20.16;35.45
66962;HTU21D;53897;51.126;5.868;2023-02-28T04:22:09;20.14;35.45
66962;HTU21D;53897;51.126;5.868;2023-02-28T04:24:35;20.14;35.43
66962;HTU21D;53897;51.126;5.868;2023-02-28T04:27:01;20.13;35.37
66962;HTU21D;53897;51.126;5.868;2023-02-28T04:29:30;20.11;35.42
66962;HTU21D;53897;51.126;5.868;2023-02-28T04:31:56;20.10;35.32
66962;HTU21D;53897;51.126;5.868;2023-02-28T04:34:30;20.10;35.40
66962;HTU21D;53897;51.126;5.868;2023-02-28T04:36:57;20.07;35.37
66962;HTU21D;53897;51.126;5.868;2023-02-28T04:39:24;20.05;35.40
66962;HTU21D;53897;51.126;5.868;2023-02-28T04:41:50;20.05;35.40
66962;HTU21D;53897;51.126;5.868;2023-02-28T04:44:16;20.04;35.38
66962;HTU21D;53897;51.126;5.868;2023-02-28T04:46:43;20.01;35.36
66962;HTU21D;53897;51.126;5.868;2023-02-28T04:49:11;20.02;35.37
66962;HTU21D;53897;51.126;5.868;2023-02-28T04:51:37;20.00;35.34
66962;HTU21D;53897;51.126;5.868;2023-02-28T04:54:03;19.99;35.33
66962;HTU21D;53897;51.126;5.868;2023-02-28T04:56:29;19.98;35.33
66962;HTU21D;53897;51.126;5.868;2023-02-28T04:58:54;19.97;35.35
66962;HTU21D;53897;51.126;5.868;2023-02-28T05:01:26;19.96;35.34
66962;HTU21D;53897;51.126;5.868;2023-02-28T05:03:53;19.95;35.33
66962;HTU21D;53897;51.126;5.868;2023-02-28T05:06:21;19.94;35.31
66962;HTU21D;53897;51.126;5.868;2023-02-28T05:08:49;19.92;35.23
66962;HTU21D;53897;51.126;5.868;2023-02-28T05:13:46;19.90;35.28
66962;HTU21D;53897;51.126;5.868;2023-02-28T05:16:11;19.89;35.30
66962;HTU21D;53897;51.126;5.868;2023-02-28T05:18:38;19.87;35.31
66962;HTU21D;53897;51.126;5.868;2023-02-28T05:21:03;19.85;35.30
66962;HTU21D;53897;51.126;5.868;2023-02-28T05:23:29;19.85;35.25
66962;HTU21D;53897;51.126;5.868;2023-02-28T05:25:55;19.84;35.04
66962;HTU21D;53897;51.126;5.868;2023-02-28T05:28:21;19.82;35.08
66962;HTU21D;53897;51.126;5.868;2023-02-28T05:30:47;19.79;35.21
66962;HTU21D;53897;51.126;5.868;2023-02-28T05:33:13;19.75;35.28
66962;HTU21D;53897;51.126;5.868;2023-02-28T05:35:40;19.74;35.31
66962;HTU21D;53897;51.126;5.868;2023-02-28T05:38:06;19.73;35.37
66962;HTU21D;53897;51.126;5.868;2023-02-28T05:40:32;19.71;35.42
66962;HTU21D;53897;51.126;5.868;2023-02-28T05:42:58;19.69;35.52
66962;HTU21D;53897;51.126;5.868;2023-02-28T05:45:23;19.66;35.57
66962;HTU21D;53897;51.126;5.868;2023-02-28T05:47:53;19.62;35.67
66962;HTU21D;53897;51.126;5.868;2023-02-28T05:50:18;19.62;35.74
66962;HTU21D;53897;51.126;5.868;2023-02-28T05:52:48;19.62;35.85
66962;HTU21D;53897;51.126;5.868;2023-02-28T05:55:14;19.63;35.93
66962;HTU21D;53897;51.126;5.868;2023-02-28T05:57:39;19.68;36.00
66962;HTU21D;53897;51.126;5.868;2023-02-28T06:00:05;19.72;36.05
66962;HTU21D;53897;51.126;5.868;2023-02-28T06:02:39;19.80;36.02
66962;HTU21D;53897;51.126;5.868;2023-02-28T06:05:14;19.90;36.02
66962;HTU21D;53897;51.126;5.868;2023-02-28T06:07:39;20.00;36.00
66962;HTU21D;53897;51.126;5.868;2023-02-28T06:10:06;20.09;35.97
66962;HTU21D;53897;51.126;5.868;2023-02-28T06:12:31;20.16;35.91
66962;HTU21D;53897;51.126;5.868;2023-02-28T06:14:57;20.25;35.79
66962;HTU21D;53897;51.126;5.868;2023-02-28T06:17:23;20.34;35.73
66962;HTU21D;53897;51.126;5.868;2023-02-28T06:19:48;20.43;35.66
66962;HTU21D;53897;51.126;5.868;2023-02-28T06:22:14;20.51;35.73
66962;HTU21D;53897;51.126;5.868;2023-02-28T06:24:40;20.56;35.73
66962;HTU21D;53897;51.126;5.868;2023-02-28T06:27:05;20.63;35.92
66962;HTU21D;53897;51.126;5.868;2023-02-28T06:29:33;20.69;35.96
66962;HTU21D;53897;51.126;5.868;2023-02-28T06:31:59;20.75;35.98
66962;HTU21D;53897;51.126;5.868;2023-02-28T06:34:25;20.79;35.97
66962;HTU21D;53897;51.126;5.868;2023-02-28T06:36:52;20.86;35.92
66962;HTU21D;53897;51.126;5.868;2023-02-28T06:39:18;20.89;35.94
66962;HTU21D;53897;51.126;5.868;2023-02-28T06:41:44;20.92;35.94
66962;HTU21D;53897;51.126;5.868;2023-02-28T06:44:16;20.98;35.92
66962;HTU21D;53897;51.126;5.868;2023-02-28T06:46:44;21.02;35.85
66962;HTU21D;53897;51.126;5.868;2023-02-28T06:49:11;21.06;35.75
66962;HTU21D;53897;51.126;5.868;2023-02-28T06:51:40;21.08;35.70
66962;HTU21D;53897;51.126;5.868;2023-02-28T06:54:07;21.11;35.65
66962;HTU21D;53897;51.126;5.868;2023-02-28T06:56:36;21.14;35.64
66962;HTU21D;53897;51.126;5.868;2023-02-28T06:59:04;21.16;35.80
66962;HTU21D;53897;51.126;5.868;2023-02-28T07:01:30;21.18;35.67
66962;HTU21D;53897;51.126;5.868;2023-02-28T07:03:58;21.17;35.70
66962;HTU21D;53897;51.126;5.868;2023-02-28T07:06:24;21.16;35.70
66962;HTU21D;53897;51.126;5.868;2023-02-28T07:08:51;21.20;35.69
66962;HTU21D;53897;51.126;5.868;2023-02-28T07:11:22;21.20;35.61
66962;HTU21D;53897;51.126;5.868;2023-02-28T07:13:49;21.20;35.55
66962;HTU21D;53897;51.126;5.868;2023-02-28T07:16:16;21.23;35.57
66962;HTU21D;53897;51.126;5.868;2023-02-28T07:18:42;21.25;35.56
66962;HTU21D;53897;51.126;5.868;2023-02-28T07:21:09;21.28;35.53
66962;HTU21D;53897;51.126;5.868;2023-02-28T07:23:36;21.30;35.52
66962;HTU21D;53897;51.126;5.868;2023-02-28T07:26:04;21.34;35.57
66962;HTU21D;53897;51.126;5.868;2023-02-28T07:28:30;21.35;35.56
66962;HTU21D;53897;51.126;5.868;2023-02-28T07:30:56;21.36;35.49
66962;HTU21D;53897;51.126;5.868;2023-02-28T07:33:22;21.39;35.50
66962;HTU21D;53897;51.126;5.868;2023-02-28T07:35:49;21.43;35.50
66962;HTU21D;53897;51.126;5.868;2023-02-28T07:38:15;21.43;35.62
66962;HTU21D;53897;51.126;5.868;2023-02-28T07:40:41;21.47;35.85
66962;HTU21D;53897;51.126;5.868;2023-02-28T07:43:07;21.48;35.88
66962;HTU21D;53897;51.126;5.868;2023-02-28T07:45:32;21.50;35.83
66962;HTU21D;53897;51.126;5.868;2023-02-28T07:48:00;21.57;36.05
66962;HTU21D;53897;51.126;5.868;2023-02-28T07:50:26;21.60;35.98
66962;HTU21D;53897;51.126;5.868;2023-02-28T07:52:59;21.65;35.89
66962;HTU21D;53897;51.126;5.868;2023-02-28T07:55:25;21.70;35.82
66962;HTU21D;53897;51.126;5.868;2023-02-28T07:57:51;21.74;35.82
66962;HTU21D;53897;51.126;5.868;2023-02-28T08:00:16;21.77;35.73
66962;HTU21D;53897;51.126;5.868;2023-02-28T08:02:42;21.81;35.89
66962;HTU21D;53897;51.126;5.868;2023-02-28T08:05:08;21.84;35.82
66962;HTU21D;53897;51.126;5.868;2023-02-28T08:07:34;21.87;35.89
66962;HTU21D;53897;51.126;5.868;2023-02-28T08:09:59;21.90;35.95
66962;HTU21D;53897;51.126;5.868;2023-02-28T08:12:25;21.93;35.91
66962;HTU21D;53897;51.126;5.868;2023-02-28T08:14:51;21.96;35.95
66962;HTU21D;53897;51.126;5.868;2023-02-28T08:17:17;22.02;36.04
66962;HTU21D;53897;51.126;5.868;2023-02-28T08:19:45;22.05;36.06
66962;HTU21D;53897;51.126;5.868;2023-02-28T08:22:11;22.08;35.83
66962;HTU21D;53897;51.126;5.868;2023-02-28T08:24:37;22.09;35.68
66962;HTU21D;53897;51.126;5.868;2023-02-28T08:27:02;22.12;35.60
66962;HTU21D;53897;51.126;5.868;2023-02-28T08:29:28;22.14;35.58
66962;HTU21D;53897;51.126;5.868;2023-02-28T08:31:55;22.17;35.53
66962;HTU21D;53897;51.126;5.868;2023-02-28T08:34:21;22.18;35.49
66962;HTU21D;53897;51.126;5.868;2023-02-28T08:36:47;22.20;35.41
66962;HTU21D;53897;51.126;5.868;2023-02-28T08:39:12;22.23;35.40
66962;HTU21D;53897;51.126;5.868;2023-02-28T08:41:38;22.23;35.29
66962;HTU21D;53897;51.126;5.868;2023-02-28T08:44:04;22.25;35.28
66962;HTU21D;53897;51.126;5.868;2023-02-28T08:46:30;22.25;35.24
66962;HTU21D;53897;51.126;5.868;2023-02-28T08:48:56;22.28;35.14
66962;HTU21D;53897;51.126;5.868;2023-02-28T08:51:26;22.28;35.11
66962;HTU21D;53897;51.126;5.868;2023-02-28T08:53:54;22.31;35.03
66962;HTU21D;53897;51.126;5.868;2023-02-28T08:56:21;22.32;34.95
66962;HTU21D;53897;51.126;5.868;2023-02-28T08:58:49;22.32;34.89
66962;HTU21D;53897;51.126;5.868;2023-02-28T09:01:20;22.33;34.92
66962;HTU21D;53897;51.126;5.868;2023-02-28T09:03:49;22.33;34.95
66962;HTU21D;53897;51.126;5.868;2023-02-28T09:06:17;22.35;34.93
66962;HTU21D;53897;51.126;5.868;2023-02-28T09:08:43;22.37;34.86
66962;HTU21D;53897;51.126;5.868;2023-02-28T09:11:09;22.36;34.85
66962;HTU21D;53897;51.126;5.868;2023-02-28T09:13:36;22.36;34.88
66962;HTU21D;53897;51.126;5.868;2023-02-28T09:16:04;22.37;34.90
66962;HTU21D;53897;51.126;5.868;2023-02-28T09:18:30;22.38;34.86
66962;HTU21D;53897;51.126;5.868;2023-02-28T09:20:57;22.38;34.82
66962;HTU21D;53897;51.126;5.868;2023-02-28T09:23:24;22.39;34.76
66962;HTU21D;53897;51.126;5.868;2023-02-28T09:25:54;22.40;34.73
66962;HTU21D;53897;51.126;5.868;2023-02-28T09:28:21;22.41;34.80
66962;HTU21D;53897;51.126;5.868;2023-02-28T09:30:50;22.41;34.74
66962;HTU21D;53897;51.126;5.868;2023-02-28T09:33:17;22.43;34.69
66962;HTU21D;53897;51.126;5.868;2023-02-28T09:35:49;22.43;34.64
66962;HTU21D;53897;51.126;5.868;2023-02-28T09:38:16;22.44;34.69
66962;HTU21D;53897;51.126;5.868;2023-02-28T09:40:51;22.46;34.67
66962;HTU21D;53897;51.126;5.868;2023-02-28T09:43:21;22.47;34.63
66962;HTU21D;53897;51.126;5.868;2023-02-28T09:48:55;22.49;34.62
66962;HTU21D;53897;51.126;5.868;2023-02-28T09:53:54;22.51;34.53
66962;HTU21D;53897;51.126;5.868;2023-02-28T10:01:45;22.51;33.85
66962;HTU21D;53897;51.126;5.868;2023-02-28T10:10:40;22.43;33.10
66962;HTU21D;53897;51.126;5.868;2023-02-28T10:13:48;22.41;33.49
66962;HTU21D;53897;51.126;5.868;2023-02-28T10:16:29;22.41;33.69
66962;HTU21D;53897;51.126;5.868;2023-02-28T10:22:11;22.42;33.77
66962;HTU21D;53897;51.126;5.868;2023-02-28T10:24:43;22.42;33.79
66962;HTU21D;53897;51.126;5.868;2023-02-28T10:27:21;22.43;33.78
66962;HTU21D;53897;51.126;5.868;2023-02-28T10:29:53;22.43;33.76
66962;HTU21D;53897;51.126;5.868;2023-02-28T10:32:26;22.44;33.74
66962;HTU21D;53897;51.126;5.868;2023-02-28T10:37:37;22.46;33.73
66962;HTU21D;53897;51.126;5.868;2023-02-28T10:40:24;22.44;33.76
66962;HTU21D;53897;51.126;5.868;2023-02-28T10:43:00;22.46;33.83
66962;HTU21D;53897;51.126;5.868;2023-02-28T10:45:29;22.47;33.83
66962;HTU21D;53897;51.126;5.868;2023-02-28T10:48:26;22.47;33.86
66962;HTU21D;53897;51.126;5.868;2023-02-28T10:50:54;22.48;33.89
66962;HTU21D;53897;51.126;5.868;2023-02-28T11:01:16;22.48;33.92
66962;HTU21D;53897;51.126;5.868;2023-02-28T11:03:42;22.51;33.96
66962;HTU21D;53897;51.126;5.868;2023-02-28T11:06:16;22.51;33.97
66962;HTU21D;53897;51.126;5.868;2023-02-28T11:08:48;22.51;33.96
66962;HTU21D;53897;51.126;5.868;2023-02-28T11:11:15;22.53;33.98
66962;HTU21D;53897;51.126;5.868;2023-02-28T11:13:44;22.52;33.99
66962;HTU21D;53897;51.126;5.868;2023-02-28T11:16:13;22.53;34.02
66962;HTU21D;53897;51.126;5.868;2023-02-28T11:18:43;22.53;34.02
66962;HTU21D;53897;51.126;5.868;2023-02-28T11:21:30;22.54;33.94
66962;HTU21D;53897;51.126;5.868;2023-02-28T11:24:25;22.55;34.04
66962;HTU21D;53897;51.126;5.868;2023-02-28T11:26:52;22.55;34.07
66962;HTU21D;53897;51.126;5.868;2023-02-28T11:29:25;22.56;34.10
66962;HTU21D;53897;51.126;5.868;2023-02-28T11:32:20;22.57;34.09
66962;HTU21D;53897;51.126;5.868;2023-02-28T11:34:59;22.58;34.11
66962;HTU21D;53897;51.126;5.868;2023-02-28T11:37:27;22.60;34.14
66962;HTU21D;53897;51.126;5.868;2023-02-28T11:39:54;22.61;34.31
66962;HTU21D;53897;51.126;5.868;2023-02-28T11:45:31;22.65;34.47
66962;HTU21D;53897;51.126;5.868;2023-02-28T11:48:32;22.67;34.50
66962;HTU21D;53897;51.126;5.868;2023-02-28T11:51:05;22.68;34.51
66962;HTU21D;53897;51.126;5.868;2023-02-28T11:56:50;22.69;34.57
66962;HTU21D;53897;51.126;5.868;2023-02-28T12:02:18;22.72;34.56
66962;HTU21D;53897;51.126;5.868;2023-02-28T12:05:10;22.75;34.56
66962;HTU21D;53897;51.126;5.868;2023-02-28T12:10:37;22.78;34.47
66962;HTU21D;53897;51.126;5.868;2023-02-28T12:21:04;22.82;34.53
66962;HTU21D;53897;51.126;5.868;2023-02-28T12:28:57;22.82;34.50
66962;HTU21D;53897;51.126;5.868;2023-02-28T12:31:35;22.81;34.51
66962;HTU21D;53897;51.126;5.868;2023-02-28T12:34:11;22.81;33.51
66962;HTU21D;53897;51.126;5.868;2023-02-28T12:36:39;22.80;32.79
66962;HTU21D;53897;51.126;5.868;2023-02-28T12:39:17;22.79;32.47
66962;HTU21D;53897;51.126;5.868;2023-02-28T12:41:54;22.78;32.57
66962;HTU21D;53897;51.126;5.868;2023-02-28T12:44:30;22.76;32.66
66962;HTU21D;53897;51.126;5.868;2023-02-28T12:47:02;22.75;32.82
66962;HTU21D;53897;51.126;5.868;2023-02-28T12:49:49;22.73;33.09
66962;HTU21D;53897;51.126;5.868;2023-02-28T12:52:23;22.76;33.37
66962;HTU21D;53897;51.126;5.868;2023-02-28T12:55:15;22.76;33.54
66962;HTU21D;53897;51.126;5.868;2023-02-28T13:03:51;22.77;34.31
66962;HTU21D;53897;51.126;5.868;2023-02-28T13:06:47;22.79;34.39
66962;HTU21D;53897;51.126;5.868;2023-02-28T13:09:17;22.80;34.45
66962;HTU21D;53897;51.126;5.868;2023-02-28T13:11:46;22.81;33.96
66962;HTU21D;53897;51.126;5.868;2023-02-28T13:19:31;22.82;33.99
66962;HTU21D;53897;51.126;5.868;2023-02-28T13:21:58;22.82;34.00
66962;HTU21D;53897;51.126;5.868;2023-02-28T13:24:41;22.81;33.72
66962;HTU21D;53897;51.126;5.868;2023-02-28T13:29:37;22.84;33.60
66962;HTU21D;53897;51.126;5.868;2023-02-28T14:06:59;21.91;34.78
66962;HTU21D;53897;51.126;5.868;2023-02-28T14:09:32;21.96;35.13
66962;HTU21D;53897;51.126;5.868;2023-02-28T14:15:03;22.11;34.93
66962;HTU21D;53897;51.126;5.868;2023-02-28T14:17:32;22.17;34.94
66962;HTU21D;53897;51.126;5.868;2023-02-28T14:19:58;22.21;35.08
66962;HTU21D;53897;51.126;5.868;2023-02-28T14:25:33;22.36;35.08
66962;HTU21D;53897;51.126;5.868;2023-02-28T14:30:53;22.46;34.99
66962;HTU21D;53897;51.126;5.868;2023-02-28T14:33:27;22.53;34.94
66962;HTU21D;53897;51.126;5.868;2023-02-28T14:38:35;22.63;34.87
66962;HTU21D;53897;51.126;5.868;2023-02-28T14:41:06;22.66;34.84
66962;HTU21D;53897;51.126;5.868;2023-02-28T14:43:58;22.70;34.82
66962;HTU21D;53897;51.126;5.868;2023-02-28T14:46:30;22.73;34.72
66962;HTU21D;53897;51.126;5.868;2023-02-28T14:49:00;22.77;34.71
66962;HTU21D;53897;51.126;5.868;2023-02-28T14:51:26;22.79;34.73
66962;HTU21D;53897;51.126;5.868;2023-02-28T14:53:59;22.82;34.75
66962;HTU21D;53897;51.126;5.868;2023-02-28T14:56:35;22.84;34.73
66962;HTU21D;53897;51.126;5.868;2023-02-28T14:59:03;22.86;34.70
66962;HTU21D;53897;51.126;5.868;2023-02-28T15:01:30;22.88;34.72
66962;HTU21D;53897;51.126;5.868;2023-02-28T15:04:25;22.92;34.73
66962;HTU21D;53897;51.126;5.868;2023-02-28T15:07:10;22.94;34.71
66962;HTU21D;53897;51.126;5.868;2023-02-28T15:09:36;22.95;34.71
66962;HTU21D;53897;51.126;5.868;2023-02-28T15:12:02;22.97;34.66
66962;HTU21D;53897;51.126;5.868;2023-02-28T15:14:28;22.98;34.56
66962;HTU21D;53897;51.126;5.868;2023-02-28T15:17:00;22.96;34.50
66962;HTU21D;53897;51.126;5.868;2023-02-28T15:19:31;22.94;34.54
66962;HTU21D;53897;51.126;5.868;2023-02-28T15:22:04;22.95;34.57
66962;HTU21D;53897;51.126;5.868;2023-02-28T15:24:37;22.96;34.55
66962;HTU21D;53897;51.126;5.868;2023-02-28T15:27:25;22.97;34.55
66962;HTU21D;53897;51.126;5.868;2023-02-28T15:29:59;22.97;34.55
66962;HTU21D;53897;51.126;5.868;2023-02-28T15:32:34;23.00;34.53
66962;HTU21D;53897;51.126;5.868;2023-02-28T15:38:16;23.00;34.44
66962;HTU21D;53897;51.126;5.868;2023-02-28T15:40:45;23.00;34.34
66962;HTU21D;53897;51.126;5.868;2023-02-28T15:43:38;22.99;34.38
66962;HTU21D;53897;51.126;5.868;2023-02-28T15:46:11;23.00;34.37
66962;HTU21D;53897;51.126;5.868;2023-02-28T15:48:44;22.98;34.29
66962;HTU21D;53897;51.126;5.868;2023-02-28T15:51:33;22.93;34.38
66962;HTU21D;53897;51.126;5.868;2023-02-28T15:54:04;22.88;34.63
66962;HTU21D;53897;51.126;5.868;2023-02-28T15:56:33;22.87;34.54
66962;HTU21D;53897;51.126;5.868;2023-02-28T15:59:04;22.86;34.59
66962;HTU21D;53897;51.126;5.868;2023-02-28T16:01:35;22.88;34.64
66962;HTU21D;53897;51.126;5.868;2023-02-28T16:04:06;22.91;34.63
66962;HTU21D;53897;51.126;5.868;2023-02-28T16:09:02;22.91;34.59
66962;HTU21D;53897;51.126;5.868;2023-02-28T16:11:28;22.91;34.54
66962;HTU21D;53897;51.126;5.868;2023-02-28T16:13:54;22.91;34.55
66962;HTU21D;53897;51.126;5.868;2023-02-28T16:16:23;22.92;34.48
66962;HTU21D;53897;51.126;5.868;2023-02-28T16:18:50;22.98;34.28
66962;HTU21D;53897;51.126;5.868;2023-02-28T16:21:16;23.14;33.91
66962;HTU21D;53897;51.126;5.868;2023-02-28T16:23:42;23.31;33.51
66962;HTU21D;53897;51.126;5.868;2023-02-28T16:26:18;23.47;33.21
66962;HTU21D;53897;51.126;5.868;2023-02-28T16:28:44;23.49;33.14
66962;HTU21D;53897;51.126;5.868;2023-02-28T16:31:12;23.42;33.25
66962;HTU21D;53897;51.126;5.868;2023-02-28T16:33:43;23.34;33.55
66962;HTU21D;53897;51.126;5.868;2023-02-28T16:36:16;23.29;33.89
66962;HTU21D;53897;51.126;5.868;2023-02-28T16:38:42;23.24;33.44
66962;HTU21D;53897;51.126;5.868;2023-02-28T16:41:12;23.17;32.77
66962;HTU21D;53897;51.126;5.868;2023-02-28T16:43:47;23.09;32.48
66962;HTU21D;53897;51.126;5.868;2023-02-28T16:46:14;23.03;32.47
66962;HTU21D;53897;51.126;5.868;2023-02-28T16:48:40;22.99;32.48
66962;HTU21D;53897;51.126;5.868;2023-02-28T16:51:11;22.93;32.45
66962;HTU21D;53897;51.126;5.868;2023-02-28T16:53:37;22.91;32.78
66962;HTU21D;53897;51.126;5.868;2023-02-28T16:56:03;22.91;32.76
66962;HTU21D;53897;51.126;5.868;2023-02-28T16:58:29;22.87;32.69
66962;HTU21D;53897;51.126;5.868;2023-02-28T17:00:55;22.86;32.72
66962;HTU21D;53897;51.126;5.868;2023-02-28T17:03:26;22.85;32.75
66962;HTU21D;53897;51.126;5.868;2023-02-28T17:05:52;22.84;32.84
66962;HTU21D;53897;51.126;5.868;2023-02-28T17:08:18;22.83;33.00
66962;HTU21D;53897;51.126;5.868;2023-02-28T17:10:44;22.81;33.05
66962;HTU21D;53897;51.126;5.868;2023-02-28T17:13:09;22.80;32.99
66962;HTU21D;53897;51.126;5.868;2023-02-28T17:15:37;22.80;32.92
66962;HTU21D;53897;51.126;5.868;2023-02-28T17:18:04;22.79;33.38
66962;HTU21D;53897;51.126;5.868;2023-02-28T17:20:31;22.73;33.84
66962;HTU21D;53897;51.126;5.868;2023-02-28T17:22:57;22.69;34.31
66962;HTU21D;53897;51.126;5.868;2023-02-28T17:25:23;22.64;34.80
66962;HTU21D;53897;51.126;5.868;2023-02-28T17:27:50;22.61;35.21
66962;HTU21D;53897;51.126;5.868;2023-02-28T17:30:25;22.57;35.52
66962;HTU21D;53897;51.126;5.868;2023-02-28T17:32:56;22.54;35.77
66962;HTU21D;53897;51.126;5.868;2023-02-28T17:35:22;22.51;36.05
66962;HTU21D;53897;51.126;5.868;2023-02-28T17:37:48;22.53;36.07
66962;HTU21D;53897;51.126;5.868;2023-02-28T17:40:16;22.53;36.07
66962;HTU21D;53897;51.126;5.868;2023-02-28T17:42:43;22.58;35.86
66962;HTU21D;53897;51.126;5.868;2023-02-28T17:45:09;22.60;35.64
66962;HTU21D;53897;51.126;5.868;2023-02-28T17:47:35;22.62;35.60
66962;HTU21D;53897;51.126;5.868;2023-02-28T17:50:01;22.64;35.73
66962;HTU21D;53897;51.126;5.868;2023-02-28T17:52:26;22.64;35.87
66962;HTU21D;53897;51.126;5.868;2023-02-28T17:54:55;22.65;36.22
66962;HTU21D;53897;51.126;5.868;2023-02-28T17:57:20;22.66;36.37
66962;HTU21D;53897;51.126;5.868;2023-02-28T17:59:46;22.67;36.46
66962;HTU21D;53897;51.126;5.868;2023-02-28T18:02:13;22.71;36.50
66962;HTU21D;53897;51.126;5.868;2023-02-28T18:04:39;22.73;36.44
66962;HTU21D;53897;51.126;5.868;2023-02-28T18:07:06;22.72;36.50
66962;HTU21D;53897;51.126;5.868;2023-02-28T18:09:32;22.75;36.58